createdAt,value
2023-01-22T00:03:36.692Z,0.87
2023-01-22T00:07:38.235Z,0.91
2023-01-22T00:11:39.777Z,0.94
2023-01-22T00:15:41.319Z,0.94
2023-01-22T00:19:43.527Z,0.94
2023-01-22T00:23:45.133Z,0.98
2023-01-22T00:27:46.618Z,1.00
2023-01-22T00:31:48.214Z,1.07
2023-01-22T00:35:49.779Z,1.09
2023-01-22T00:39:51.280Z,1.14
2023-01-22T00:43:53.135Z,1.16
2023-01-22T00:47:54.708Z,1.23
2023-01-22T00:51:56.237Z,1.18
2023-01-22T00:56:00.215Z,1.20
2023-01-22T01:00:02.552Z,1.26
2023-01-22T01:04:05.580Z,1.23
2023-01-22T01:08:07.523Z,1.26
2023-01-22T01:12:09.420Z,1.26
2023-01-22T01:16:17.804Z,1.31
2023-01-22T01:20:23.098Z,1.33
2023-01-22T01:24:24.742Z,1.38
2023-01-22T01:28:28.795Z,1.39
2023-01-22T01:32:32.307Z,1.33
2023-01-22T01:36:48.408Z,1.39
2023-01-22T01:40:51.954Z,1.34
2023-01-22T01:45:19.268Z,1.38
2023-01-22T01:49:32.992Z,1.33
2023-01-22T01:53:36.248Z,1.34
2023-01-22T01:57:40.088Z,1.39
2023-01-22T02:01:42.266Z,1.34
2023-01-22T02:05:43.892Z,1.34
2023-01-22T02:09:47.089Z,1.32
2023-01-22T02:13:57.869Z,1.32
2023-01-22T02:18:00.600Z,1.38
2023-01-22T02:22:02.396Z,1.37
2023-01-22T02:26:04.575Z,1.35
2023-01-22T02:30:06.996Z,1.33
2023-01-22T02:34:10.998Z,1.31
2023-01-22T02:38:14.207Z,1.28
2023-01-22T02:42:16.262Z,1.25
2023-01-22T02:46:18.826Z,1.27
2023-01-22T02:50:20.647Z,1.29
2023-01-22T02:54:22.334Z,1.24
2023-01-22T02:58:25.111Z,1.22
2023-01-22T03:02:27.042Z,1.23
2023-01-22T03:06:29.998Z,1.19
2023-01-22T03:10:34.718Z,1.21
2023-01-22T03:14:55.071Z,1.19
2023-01-22T03:19:15.344Z,1.21
2023-01-22T03:23:17.452Z,1.21
2023-01-22T03:27:23.799Z,1.21
2023-01-22T03:31:25.943Z,1.23
2023-01-22T03:35:27.632Z,1.23
2023-01-22T03:39:42.873Z,1.25
2023-01-22T03:43:49.925Z,1.24
2023-01-22T03:47:55.196Z,1.25
2023-01-22T03:52:04.462Z,1.24
2023-01-22T03:56:09.069Z,1.19
2023-01-22T04:00:13.834Z,1.21
2023-01-22T04:04:19.162Z,1.20
2023-01-22T04:08:22.574Z,1.24
2023-01-22T04:12:24.355Z,1.25
2023-01-22T04:16:26.490Z,1.24
2023-01-22T04:20:42.392Z,1.27
2023-01-22T04:24:55.185Z,1.28
2023-01-22T04:28:56.815Z,1.30
2023-01-22T04:32:59.724Z,1.27
2023-01-22T04:37:06.736Z,1.25
2023-01-22T04:41:10.248Z,1.24
2023-01-22T04:45:12.947Z,1.27
2023-01-22T04:49:14.587Z,1.24
2023-01-22T04:53:17.763Z,1.22
2023-01-22T04:57:21.178Z,1.24
2023-01-22T05:01:25.057Z,1.27
2023-01-22T05:05:28.105Z,1.24
2023-01-22T05:09:29.862Z,1.28
2023-01-22T05:13:35.513Z,1.35
2023-01-22T05:17:37.160Z,1.32
2023-01-22T05:21:38.966Z,1.33
2023-01-22T05:25:46.871Z,1.34
2023-01-22T05:29:48.649Z,1.33
2023-01-22T05:34:06.508Z,1.32
2023-01-22T05:38:08.208Z,1.34
2023-01-22T05:42:15.145Z,1.39
2023-01-22T05:46:18.985Z,1.39
2023-01-22T05:50:40.840Z,1.39
2023-01-22T05:54:45.051Z,1.42
2023-01-22T05:58:46.771Z,1.43
2023-01-22T06:02:49.248Z,1.44
2023-01-22T06:06:50.950Z,1.46
2023-01-22T06:11:01.798Z,1.48
2023-01-22T06:15:04.062Z,1.49
2023-01-22T06:19:06.161Z,1.49
2023-01-22T06:23:14.216Z,1.48
2023-01-22T06:27:16.268Z,1.51
2023-01-22T06:31:34.494Z,1.56
2023-01-22T06:35:37.794Z,1.55
2023-01-22T06:39:39.766Z,1.52
2023-01-22T06:43:53.876Z,1.51
2023-01-22T06:47:55.512Z,1.53
2023-01-22T06:51:57.070Z,1.57
2023-01-22T06:55:59.677Z,1.57
2023-01-22T07:00:01.853Z,1.60
2023-01-22T07:04:03.546Z,1.60
2023-01-22T07:08:05.442Z,1.62
2023-01-22T07:12:07.076Z,1.61
2023-01-22T07:16:08.770Z,1.62
2023-01-22T07:20:11.088Z,1.66
2023-01-22T07:24:12.821Z,1.67
2023-01-22T07:28:15.151Z,1.68
2023-01-22T07:32:16.788Z,1.66
2023-01-22T07:36:18.339Z,1.57
2023-01-22T07:40:20.458Z,1.65
2023-01-22T07:44:22.159Z,1.65
2023-01-22T07:48:24.783Z,1.65
2023-01-22T07:52:26.322Z,1.69
2023-01-22T07:56:27.880Z,1.72
2023-01-22T08:00:30.344Z,1.77
2023-01-22T08:04:32.022Z,1.79
2023-01-22T08:08:33.562Z,1.88
2023-01-22T08:12:37.259Z,1.89
2023-01-22T08:16:38.912Z,1.94
2023-01-22T08:20:40.515Z,2.03
2023-01-22T08:24:42.775Z,2.06
2023-01-22T08:28:44.419Z,2.11
2023-01-22T08:32:46.741Z,2.09
2023-01-22T08:36:48.360Z,2.16
2023-01-22T08:40:50.757Z,2.16
2023-01-22T08:44:52.385Z,2.20
2023-01-22T08:48:54.058Z,2.27
2023-01-22T08:52:58.719Z,2.32
2023-01-22T08:57:00.491Z,2.38
2023-01-22T09:01:02.212Z,2.49
2023-01-22T09:05:03.995Z,2.53
2023-01-22T09:09:06.512Z,2.59
2023-01-22T09:13:08.209Z,2.68
2023-01-22T09:17:09.806Z,2.68
2023-01-22T09:21:11.394Z,2.72
2023-01-22T09:25:13.294Z,2.74
2023-01-22T09:29:15.073Z,2.83
2023-01-22T09:33:16.863Z,2.82
2023-01-22T09:37:18.638Z,2.76
2023-01-22T09:41:24.578Z,2.86
2023-01-22T09:45:26.988Z,2.93
2023-01-22T09:49:58.744Z,3.06
2023-01-22T09:54:03.302Z,3.23
2023-01-22T09:58:10.852Z,3.28
2023-01-22T10:02:36.927Z,3.47
2023-01-22T10:06:40.443Z,3.55
2023-01-22T10:10:42.607Z,3.56
2023-01-22T10:14:44.501Z,3.57
2023-01-22T10:18:50.525Z,3.63
2023-01-22T10:22:55.786Z,3.65
2023-01-22T10:26:59.012Z,3.54
2023-01-22T10:31:04.550Z,3.50
2023-01-22T10:35:16.923Z,3.49
2023-01-22T10:39:20.934Z,3.44
2023-01-22T10:43:31.625Z,3.55
2023-01-22T10:47:33.495Z,3.80
2023-01-22T10:51:41.360Z,4.03
2023-01-22T10:55:43.182Z,4.18
2023-01-22T10:59:50.174Z,4.39
2023-01-22T11:03:51.795Z,4.34
2023-01-22T11:07:58.872Z,4.43
2023-01-22T11:12:13.557Z,4.48
2023-01-22T11:16:19.627Z,4.31
2023-01-22T11:20:25.964Z,4.43
2023-01-22T11:24:47.278Z,4.46
2023-01-22T11:29:10.777Z,4.57
2023-01-22T11:33:20.912Z,4.46
2023-01-22T11:37:48.878Z,4.36
2023-01-22T11:42:02.946Z,4.29
2023-01-22T11:46:46.761Z,4.36
2023-01-22T11:50:56.077Z,4.27
2023-01-22T11:55:17.566Z,4.32
2023-01-22T11:59:52.079Z,4.40
2023-01-22T12:03:53.661Z,4.40
2023-01-22T12:08:13.018Z,4.50
2023-01-22T12:12:51.610Z,4.55
2023-01-22T12:17:28.040Z,4.47
2023-01-22T12:21:47.464Z,4.37
2023-01-22T12:25:57.409Z,4.35
2023-01-22T12:30:12.133Z,4.37
2023-01-22T12:34:23.500Z,4.35
2023-01-22T12:38:57.388Z,4.42
2023-01-22T12:43:20.499Z,4.59
2023-01-22T12:47:38.349Z,4.68
2023-01-22T12:51:42.793Z,4.68
2023-01-22T12:55:45.138Z,4.62
2023-01-22T12:59:51.754Z,4.56
2023-01-22T13:04:02.007Z,4.54
2023-01-22T13:08:21.851Z,4.46
2023-01-22T13:12:28.880Z,4.43
2023-01-22T13:16:38.373Z,4.36
2023-01-22T13:20:52.229Z,4.25
2023-01-22T13:24:56.973Z,4.29
2023-01-22T13:29:02.364Z,4.34
2023-01-22T13:33:15.476Z,4.26
2023-01-22T13:37:27.133Z,4.28
2023-01-22T13:41:38.982Z,4.32
2023-01-22T13:45:47.662Z,4.34
2023-01-22T13:49:49.732Z,4.33
2023-01-22T13:53:54.808Z,4.28
2023-01-22T13:57:58.578Z,4.24
2023-01-22T14:02:00.585Z,4.15
2023-01-22T14:06:22.524Z,4.00
2023-01-22T14:10:25.503Z,3.91
2023-01-22T14:14:37.926Z,3.86
2023-01-22T14:18:40.066Z,3.88
2023-01-22T14:22:41.684Z,3.84
2023-01-22T14:26:43.369Z,3.84
2023-01-22T14:30:46.156Z,3.81
2023-01-22T14:34:47.712Z,3.76
2023-01-22T14:38:52.837Z,3.70
2023-01-22T14:42:54.710Z,3.67
2023-01-22T14:46:57.241Z,3.66
2023-01-22T14:50:59.882Z,3.70
2023-01-22T14:55:01.602Z,3.73
2023-01-22T14:59:04.633Z,3.64
2023-01-22T15:03:06.408Z,3.61
2023-01-22T15:33:20.141Z,3.46
2023-01-22T15:43:28.610Z,3.36
2023-01-22T15:47:30.266Z,3.36
2023-01-22T15:51:32.175Z,3.34
2023-01-22T15:55:33.833Z,3.32
2023-01-22T15:59:37.987Z,3.29
2023-01-22T16:03:39.569Z,3.27
2023-01-22T16:07:41.195Z,3.27
2023-01-22T16:11:42.852Z,3.25
2023-01-22T16:15:47.847Z,3.22
2023-01-22T16:19:51.858Z,3.20
2023-01-22T16:23:57.570Z,3.19
2023-01-22T16:27:59.172Z,3.19
2023-01-22T16:32:00.848Z,3.21
2023-01-22T16:36:08.923Z,3.14
2023-01-22T16:40:11.301Z,3.12
2023-01-22T16:44:17.956Z,3.15
2023-01-22T16:48:19.563Z,3.04
2023-01-22T16:52:23.055Z,3.00
2023-01-22T16:56:24.852Z,2.93
2023-01-22T17:00:26.519Z,2.90
2023-01-22T17:04:28.770Z,2.94
2023-01-22T17:08:30.396Z,2.91
2023-01-22T17:12:32.205Z,2.93
2023-01-22T17:16:33.765Z,2.92
2023-01-22T17:20:36.884Z,2.95
2023-01-22T17:24:38.632Z,2.96
2023-01-22T17:28:40.359Z,2.95
2023-01-22T17:32:42.129Z,2.90
2023-01-22T17:36:43.892Z,2.85
2023-01-22T17:40:45.426Z,2.81
2023-01-22T17:44:47.601Z,2.83
2023-01-22T17:48:51.841Z,2.82
2023-01-22T17:52:53.618Z,2.87
2023-01-22T17:56:55.411Z,2.85
2023-01-22T18:01:07.571Z,2.84
2023-01-22T18:05:10.465Z,2.80
2023-01-22T18:09:12.550Z,2.78
2023-01-22T18:13:14.222Z,2.77
2023-01-22T18:17:15.887Z,2.78
2023-01-22T18:21:19.499Z,2.81
2023-01-22T18:25:21.127Z,2.83
2023-01-22T18:29:22.855Z,2.83
2023-01-22T18:33:25.764Z,2.82
2023-01-22T18:37:27.909Z,2.83
2023-01-22T18:41:30.793Z,2.80
2023-01-22T18:45:40.392Z,2.72
2023-01-22T18:49:42.041Z,2.75
2023-01-22T18:53:43.712Z,2.76
2023-01-22T18:57:49.157Z,2.71
2023-01-22T19:01:51.890Z,2.70
2023-01-22T19:05:54.683Z,2.69
2023-01-22T19:09:56.175Z,2.66
2023-01-22T19:13:59.718Z,2.65
2023-01-22T19:18:01.452Z,2.65
2023-01-22T19:22:04.068Z,2.63
2023-01-22T19:26:13.453Z,2.65
2023-01-22T19:30:18.050Z,2.60
2023-01-22T19:39:19.569Z,2.57
2023-01-22T19:43:26.406Z,2.57
2023-01-22T19:47:53.565Z,2.60
2023-01-22T19:51:59.080Z,2.58
2023-01-22T19:56:01.506Z,2.63
2023-01-22T20:09:21.977Z,2.56
2023-01-22T20:13:24.414Z,2.52
2023-01-22T20:17:47.282Z,2.51
2023-01-22T20:33:38.647Z,2.45
2023-01-22T20:38:08.829Z,2.50
2023-01-22T20:43:07.965Z,2.52
2023-01-22T20:47:44.035Z,2.54
2023-01-22T20:51:56.691Z,2.54
2023-01-22T20:56:19.431Z,2.50
2023-01-22T21:00:44.089Z,2.50
2023-01-22T21:04:46.216Z,2.50
2023-01-22T21:09:07.211Z,2.51
2023-01-22T21:13:14.460Z,2.50
2023-01-22T21:17:18.951Z,2.50
2023-01-22T21:21:26.167Z,2.49
2023-01-22T21:25:37.549Z,2.53
2023-01-22T21:29:39.703Z,2.49
2023-01-22T21:33:42.298Z,2.44
2023-01-22T21:37:43.889Z,2.45
2023-01-22T21:41:45.863Z,2.38
2023-01-22T21:46:06.479Z,2.40
2023-01-22T21:50:08.936Z,2.40
2023-01-22T21:54:11.497Z,2.44
2023-01-22T21:58:13.296Z,2.47
2023-01-22T22:02:17.542Z,2.49
2023-01-22T22:06:19.495Z,2.47
2023-01-22T22:10:21.459Z,2.42
2023-01-22T22:14:24.654Z,2.41
2023-01-22T22:18:26.343Z,2.43
2023-01-22T22:22:27.984Z,2.38
2023-01-22T22:26:29.690Z,2.40
2023-01-22T22:30:31.270Z,2.43
2023-01-22T22:34:32.842Z,2.45
2023-01-22T22:38:35.049Z,2.40
2023-01-22T22:42:37.587Z,2.40
2023-01-22T22:46:39.741Z,2.40
2023-01-22T22:50:43.284Z,2.37
2023-01-22T22:54:45.230Z,2.36
2023-01-22T22:58:47.455Z,2.31
2023-01-22T23:02:49.231Z,2.31
2023-01-22T23:06:52.012Z,2.26
2023-01-22T23:10:53.500Z,2.21
2023-01-22T23:14:55.117Z,2.19
2023-01-22T23:18:59.067Z,2.15
2023-01-22T23:23:00.627Z,2.13
2023-01-22T23:27:02.231Z,2.14
2023-01-22T23:31:11.669Z,2.10
2023-01-22T23:35:13.481Z,2.10
2023-01-22T23:39:17.597Z,2.11
2023-01-22T23:43:19.147Z,2.13
2023-01-22T23:47:20.928Z,2.07
2023-01-22T23:51:22.520Z,2.10
2023-01-22T23:55:24.084Z,2.07
2023-01-22T23:59:25.645Z,2.09
